Time;durP1;ratioP1;P1;durP2;ratioP2;P2;SDS_P1;SDS_P2;PMS_P1;PMS_P2;Temp;Humidity;BMP_temperature;BMP_pressure;BME280_temperature;BME280_humidity;BME280_pressure;Samples;Min_cycle;Max_cycle;Signal;HPM_P1;HPM_P2
2022/01/27 00:06:05;;;;;;;53.20;24.45;;;-0.60;99.90;;;;;;5089486;28;20051;-73
2022/01/27 00:11:15;;;;;;;58.78;25.73;;;-0.60;99.90;;;;;;5091639;28;20118;-73
2022/01/27 00:13:57;;;;;;;50.08;22.33;;;-0.60;99.90;;;;;;5071842;28;20036;-72
2022/01/27 00:16:27;;;;;;;54.55;24.58;;;-0.60;99.90;;;;;;5055532;28;20044;-73
2022/01/27 00:18:59;;;;;;;54.85;23.52;;;-0.60;99.90;;;;;;5073675;28;20048;-72
2022/01/27 00:21:31;;;;;;;60.70;25.85;;;-0.60;99.90;;;;;;5092001;28;20048;-73
2022/01/27 00:23:58;;;;;;;57.95;25.67;;;-0.60;99.90;;;;;;5090211;28;20044;-72
2022/01/27 00:26:30;;;;;;;57.85;26.27;;;-0.60;99.90;;;;;;5073564;28;20048;-72
2022/01/27 00:29:02;;;;;;;54.45;24.40;;;-0.60;99.90;;;;;;5092001;28;20491;-72
2022/01/27 00:31:33;;;;;;;57.00;26.88;;;-0.60;99.90;;;;;;5090429;28;20051;-72
2022/01/27 00:34:05;;;;;;;49.92;24.33;;;-0.60;99.90;;;;;;5090022;28;20048;-72
2022/01/27 00:36:37;;;;;;;52.47;23.52;;;-0.60;99.90;;;;;;5091681;28;20054;-72
2022/01/27 00:39:09;;;;;;;56.90;25.98;;;-0.60;99.90;;;;;;5090418;28;20047;-73
2022/01/27 00:41:40;;;;;;;53.13;24.92;;;-0.60;99.90;;;;;;5091579;28;20040;-72
2022/01/27 00:44:07;;;;;;;60.75;25.58;;;-0.60;99.90;;;;;;5072968;28;20042;-72
2022/01/27 00:46:36;;;;;;;58.92;26.38;;;-0.60;99.90;;;;;;5090250;28;20509;-72
2022/01/27 00:49:03;;;;;;;57.35;24.58;;;-0.60;99.90;;;;;;5090151;28;20044;-72
2022/01/27 00:51:37;;;;;;;61.13;26.08;;;-0.60;99.90;;;;;;5074376;28;20394;-72
2022/01/27 00:54:13;;;;;;;55.67;24.92;;;-0.60;99.90;;;;;;5056234;28;20058;-72
2022/01/27 00:59:57;;;;;;;55.70;26.92;;;-0.60;99.90;;;;;;5055250;28;20044;-72
2022/01/27 01:07:58;;;;;;;50.60;23.00;;;-0.50;99.90;;;;;;5073193;28;20044;-72
2022/01/27 01:11:11;;;;;;;57.42;27.73;;;-0.60;99.90;;;;;;5057006;28;20044;-73
2022/01/27 01:14:18;;;;;;;54.75;24.65;;;-0.60;99.90;;;;;;5089384;28;20048;-73
2022/01/27 01:16:50;;;;;;;;;;;-0.60;99.90;;;;;;5090277;28;20051;-73
2022/01/27 01:19:32;;;;;;;54.13;24.90;;;-0.60;99.90;;;;;;5090323;28;19920;-73
2022/01/27 01:33:09;;;;;;;55.05;26.00;;;-0.70;99.90;;;;;;5094628;28;20043;-72
2022/01/27 01:38:21;;;;;;;50.53;26.17;;;-0.70;99.90;;;;;;5093769;28;20044;-72
2022/01/27 01:40:53;;;;;;;56.25;26.30;;;-0.70;99.90;;;;;;5094945;28;20066;-72
2022/01/27 01:43:25;;;;;;;60.35;26.75;;;-0.70;99.90;;;;;;5093260;28;20131;-72
2022/01/27 01:45:57;;;;;;;61.03;25.70;;;-0.80;99.90;;;;;;5092840;28;20036;-72
2022/01/27 01:48:29;;;;;;;58.17;27.08;;;-0.80;99.90;;;;;;5093642;28;20043;-72
2022/01/27 01:51:03;;;;;;;68.15;28.63;;;-0.80;99.90;;;;;;5077545;28;20028;-73
2022/01/27 01:53:34;;;;;;;59.60;27.52;;;-0.80;99.90;;;;;;5076100;28;20043;-73
2022/01/27 01:56:06;;;;;;;59.65;27.80;;;-0.80;99.90;;;;;;5060778;28;20514;-73
2022/01/27 01:58:38;;;;;;;61.97;27.60;;;-0.90;99.90;;;;;;5076356;28;20036;-73
2022/01/27 02:01:09;;;;;;;66.05;28.40;;;-0.90;99.90;;;;;;5093149;28;20044;-73
2022/01/27 02:03:41;;;;;;;64.72;28.25;;;-0.90;99.90;;;;;;5075388;28;20051;-73
2022/01/27 02:06:16;;;;;;;64.53;29.13;;;-0.90;99.90;;;;;;5075614;28;20139;-72
2022/01/27 02:08:50;;;;;;;66.43;28.00;;;-0.90;99.90;;;;;;5092684;28;20052;-72
2022/01/27 02:19:44;;;;;;;65.88;27.88;;;-0.90;99.90;;;;;;5092649;28;20058;-72
2022/01/27 02:22:18;;;;;;;69.45;30.95;;;-0.90;99.90;;;;;;5075498;28;20042;-73
2022/01/27 02:24:45;;;;;;;57.50;28.33;;;-1.00;99.90;;;;;;5092125;28;20487;-72
2022/01/27 02:27:18;;;;;;;59.28;27.40;;;-0.90;99.90;;;;;;5093528;28;20037;-72
2022/01/27 02:29:50;;;;;;;63.50;28.42;;;-0.90;99.90;;;;;;5093938;28;20047;-72
2022/01/27 02:32:22;;;;;;;62.17;26.95;;;-0.90;99.90;;;;;;5093926;28;20510;-73
2022/01/27 02:34:54;;;;;;;68.00;28.42;;;-0.90;99.90;;;;;;5075692;28;20048;-72
2022/01/27 02:37:26;;;;;;;58.50;27.92;;;-0.90;99.90;;;;;;5075230;28;20040;-72
2022/01/27 02:39:57;;;;;;;66.13;28.55;;;-0.90;99.90;;;;;;5093304;28;20036;-73
2022/01/27 02:42:35;;;;;;;54.05;26.50;;;-0.90;99.90;;;;;;5092626;28;20044;-73
2022/01/27 02:45:08;;;;;;;57.05;25.80;;;-0.90;99.90;;;;;;5075222;28;20040;-73
2022/01/27 02:47:35;;;;;;;58.35;27.08;;;-0.90;99.90;;;;;;5093390;28;20421;-72
2022/01/27 02:50:07;;;;;;;56.38;27.75;;;-0.90;99.90;;;;;;5092515;28;20040;-72
2022/01/27 02:52:34;;;;;;;65.03;30.55;;;-0.90;99.90;;;;;;5092097;28;20050;-73
2022/01/27 02:55:06;;;;;;;61.45;28.65;;;-0.90;99.90;;;;;;5092425;28;20036;-72
2022/01/27 02:57:39;;;;;;;60.08;28.52;;;-0.90;99.90;;;;;;5092225;28;20502;-72
2022/01/27 03:00:07;;;;;;;61.25;26.73;;;-0.90;99.90;;;;;;5093310;28;20051;-72
2022/01/27 03:02:39;;;;;;;51.40;23.13;;;-0.90;99.90;;;;;;5092004;28;20048;-72
2022/01/27 03:05:10;;;;;;;51.63;25.40;;;-0.90;99.90;;;;;;5075185;28;20048;-72
2022/01/27 03:07:47;;;;;;;63.80;28.15;;;-1.00;99.90;;;;;;5093280;28;20401;-72
2022/01/27 03:10:20;;;;;;;55.92;28.20;;;-1.00;99.90;;;;;;5092122;28;20044;-73
2022/01/27 03:12:57;;;;;;;61.47;28.33;;;-1.00;99.90;;;;;;5091267;28;20517;-72
2022/01/27 03:15:29;;;;;;;58.72;27.75;;;-1.10;99.90;;;;;;5075117;28;20036;-72
2022/01/27 03:18:01;;;;;;;62.25;27.92;;;-1.10;99.90;;;;;;5091986;28;20031;-72
2022/01/27 03:20:34;;;;;;;60.72;29.08;;;-1.20;99.90;;;;;;5092926;28;20405;-72
2022/01/27 03:23:07;;;;;;;64.15;28.58;;;-1.20;99.90;;;;;;5092613;28;20051;-73
2022/01/27 03:25:38;;;;;;;67.85;29.90;;;-1.10;99.90;;;;;;5091669;28;20048;-73
2022/01/27 03:28:08;;;;;;;60.80;27.70;;;-1.20;99.90;;;;;;5075009;28;20495;-72
2022/01/27 03:30:40;;;;;;;59.88;28.55;;;-1.20;99.90;;;;;;5092806;28;20040;-72
2022/01/27 03:33:11;;;;;;;57.22;27.30;;;-1.20;99.90;;;;;;5092313;28;20487;-73
2022/01/27 03:35:43;;;;;;;57.78;27.77;;;-1.20;99.90;;;;;;5092832;28;20051;-72
2022/01/27 03:38:10;;;;;;;57.33;27.20;;;-1.30;99.90;;;;;;5092684;28;20044;-72
2022/01/27 03:40:41;;;;;;;57.95;28.90;;;-1.30;99.90;;;;;;5092566;28;20494;-73
2022/01/27 03:43:09;;;;;;;63.60;30.35;;;-1.40;99.90;;;;;;5074119;28;20495;-73
2022/01/27 03:45:41;;;;;;;50.53;22.17;;;-1.40;99.90;;;;;;5092231;28;20410;-72
2022/01/27 03:48:08;;;;;;;58.38;28.48;;;-1.40;99.90;;;;;;5091299;28;20037;-72
2022/01/27 03:50:39;;;;;;;64.07;27.95;;;-1.40;99.90;;;;;;5092294;28;20040;-72
2022/01/27 03:53:06;;;;;;;57.05;28.42;;;-1.30;99.90;;;;;;5091097;28;20670;-72
2022/01/27 03:55:34;;;;;;;64.25;28.98;;;-1.30;99.90;;;;;;5092449;28;20066;-72
2022/01/27 03:58:07;;;;;;;51.67;24.33;;;-1.30;99.90;;;;;;5074156;28;20044;-72
2022/01/27 04:00:36;;;;;;;58.22;28.92;;;-1.40;99.90;;;;;;5092287;28;20043;-72
2022/01/27 04:03:14;;;;;;;59.75;26.75;;;-1.40;99.90;;;;;;5091795;28;20466;-72
2022/01/27 04:05:53;;;;;;;61.50;29.25;;;-1.50;99.90;;;;;;5092442;28;20520;-72
2022/01/27 04:08:22;;;;;;;61.35;29.35;;;-1.50;99.90;;;;;;5074249;28;20485;-73
2022/01/27 04:10:49;;;;;;;65.35;28.67;;;-1.50;99.90;;;;;;5091886;28;20046;-72
2022/01/27 04:13:16;;;;;;;60.70;28.23;;;-1.60;99.90;;;;;;5090205;28;20165;-72
2022/01/27 04:15:50;;;;;;;62.20;27.67;;;-1.60;99.90;;;;;;5092297;28;20046;-72
2022/01/27 04:18:23;;;;;;;56.90;27.60;;;-1.70;99.90;;;;;;5090457;28;20418;-72
2022/01/27 04:20:57;;;;;;;61.97;29.85;;;-1.80;99.90;;;;;;5073878;28;20048;-72
2022/01/27 04:23:29;;;;;;;66.70;27.30;;;-1.70;99.90;;;;;;5090156;28;20075;-72
2022/01/27 04:25:56;;;;;;;65.60;29.85;;;-1.80;99.90;;;;;;5073680;28;20131;-72
2022/01/27 04:28:32;;;;;;;65.22;29.20;;;-1.80;99.90;;;;;;5091657;28;20515;-73
2022/01/27 04:31:08;;;;;;;60.67;29.38;;;-1.80;99.90;;;;;;5090350;28;20048;-72
2022/01/27 04:33:41;;;;;;;65.50;29.45;;;-1.80;99.90;;;;;;5074380;28;20046;-73
2022/01/27 04:36:28;;;;;;;59.13;27.40;;;-1.80;99.90;;;;;;5090543;28;20040;-72
2022/01/27 04:42:42;;;;;;;58.08;28.58;;;-1.80;99.90;;;;;;5073641;28;20051;-73
2022/01/27 04:44:52;;;;;;;57.20;27.42;;;-1.80;99.90;;;;;;5072840;28;20102;-73
2022/01/27 04:47:37;;;;;;;59.90;26.15;;;-1.90;99.90;;;;;;5090343;28;20056;-73
2022/01/27 04:50:04;;;;;;;54.75;27.88;;;-1.90;99.90;;;;;;5089757;28;20056;-72
2022/01/27 04:52:37;;;;;;;57.88;28.55;;;-1.90;99.90;;;;;;5089075;28;20501;-72
2022/01/27 04:55:13;;;;;;;58.42;26.70;;;-2.00;99.90;;;;;;5073905;28;20044;-72
2022/01/27 04:57:45;;;;;;;50.33;25.77;;;-2.00;99.90;;;;;;5055857;28;20032;-73
2022/01/27 05:00:19;;;;;;;59.80;26.65;;;-2.00;99.90;;;;;;5072626;28;20046;-72
2022/01/27 05:02:57;;;;;;;50.92;25.20;;;-2.00;99.90;;;;;;5086627;28;20038;-72
2022/01/27 05:05:28;;;;;;;49.92;25.08;;;-1.90;99.90;;;;;;5082479;28;20501;-72
2022/01/27 05:08:02;;;;;;;54.13;26.83;;;-2.00;99.90;;;;;;5090582;28;20402;-73
2022/01/27 05:10:34;;;;;;;55.03;28.13;;;-2.00;99.90;;;;;;5090693;28;20513;-72
2022/01/27 05:13:25;;;;;;;55.08;27.08;;;-2.00;99.90;;;;;;5090272;28;20127;-73
2022/01/27 05:15:54;;;;;;;96.22;50.58;;;-1.90;99.90;;;;;;5089444;28;20542;-72
2022/01/27 05:18:26;;;;;;;65.93;35.80;;;-1.90;99.90;;;;;;5072229;28;20051;-73
2022/01/27 05:20:53;;;;;;;60.08;31.13;;;-1.80;99.90;;;;;;5090314;28;20144;-73
2022/01/27 05:23:20;;;;;;;79.47;39.92;;;-1.80;99.90;;;;;;5088520;28;20052;-73
2022/01/27 05:25:52;;;;;;;63.72;32.22;;;-1.80;99.90;;;;;;5090825;28;20032;-72
2022/01/27 05:28:23;;;;;;;84.43;42.30;;;-1.80;99.90;;;;;;5088930;28;20040;-72
2022/01/27 05:30:50;;;;;;;78.70;38.40;;;-1.80;99.90;;;;;;5071723;28;20040;-73
2022/01/27 05:33:22;;;;;;;53.00;27.50;;;-1.80;99.90;;;;;;5089893;28;20398;-72
2022/01/27 05:35:49;;;;;;;48.72;24.65;;;-1.80;99.90;;;;;;5091092;28;20414;-72
2022/01/27 05:38:27;;;;;;;47.42;26.73;;;-1.80;99.90;;;;;;5090699;28;20594;-72
2022/01/27 05:40:59;;;;;;;45.38;25.33;;;-1.90;99.90;;;;;;5073455;28;20087;-72
2022/01/27 05:43:32;;;;;;;46.85;25.08;;;-1.90;99.90;;;;;;5087541;28;20047;-72
2022/01/27 05:46:06;;;;;;;43.30;24.20;;;-1.90;99.90;;;;;;5063067;28;20051;-72
2022/01/27 05:48:43;;;;;;;45.53;26.38;;;-2.00;99.90;;;;;;5070483;28;20040;-72
2022/01/27 05:51:17;;;;;;;46.78;23.95;;;-2.10;99.90;;;;;;5061782;28;20084;-72
2022/01/27 05:53:49;;;;;;;50.45;27.50;;;-2.10;99.90;;;;;;5087152;28;20036;-72
2022/01/27 05:56:16;;;;;;;52.60;29.85;;;-2.00;99.90;;;;;;5072146;28;20037;-72
2022/01/27 05:58:49;;;;;;;47.45;26.80;;;-2.00;99.90;;;;;;5089523;28;20036;-72
2022/01/27 06:01:17;;;;;;;48.55;24.17;;;-2.00;99.90;;;;;;5071511;28;20094;-72
2022/01/27 06:03:43;;;;;;;56.67;30.02;;;-2.00;99.90;;;;;;5089276;28;20499;-72
2022/01/27 06:06:15;;;;;;;59.25;32.65;;;-2.00;99.90;;;;;;5090102;28;20090;-72
2022/01/27 06:08:48;;;;;;;60.65;31.77;;;-2.00;99.90;;;;;;5072056;28;20048;-73
2022/01/27 06:11:15;;;;;;;49.08;26.27;;;-2.00;99.90;;;;;;5093773;28;20559;-72
2022/01/27 06:13:43;;;;;;;51.30;27.27;;;-2.10;99.90;;;;;;5075126;28;20040;-72
2022/01/27 06:16:17;;;;;;;49.13;26.35;;;-2.10;99.90;;;;;;5094170;28;20113;-72
2022/01/27 06:18:45;;;;;;;43.33;24.20;;;-2.10;99.90;;;;;;5114172;28;20119;-72
2022/01/27 06:21:13;;;;;;;44.38;23.42;;;-2.20;99.90;;;;;;5108199;28;20044;-72
2022/01/27 06:23:45;;;;;;;40.83;23.27;;;-2.30;99.90;;;;;;5091815;28;20048;-73
2022/01/27 06:26:19;;;;;;;42.60;23.95;;;-2.40;99.90;;;;;;5093613;28;20533;-73
2022/01/27 06:28:52;;;;;;;40.00;22.73;;;-2.40;99.90;;;;;;5075084;28;20048;-72
2022/01/27 06:31:19;;;;;;;40.22;21.38;;;-2.40;99.90;;;;;;5075495;28;20111;-73
2022/01/27 06:33:46;;;;;;;40.78;22.70;;;-2.40;99.90;;;;;;5088834;28;20044;-72
2022/01/27 06:36:20;;;;;;;38.83;22.40;;;-2.40;99.90;;;;;;5059183;28;20139;-72
2022/01/27 06:38:48;;;;;;;38.92;21.63;;;-2.30;99.90;;;;;;5093541;28;20087;-73
2022/01/27 06:41:19;;;;;;;41.70;22.83;;;-2.40;99.90;;;;;;5075334;28;20048;-72
2022/01/27 06:43:48;;;;;;;38.35;21.33;;;-2.30;99.90;;;;;;5074763;28;20048;-72
2022/01/27 06:46:15;;;;;;;39.78;20.90;;;-2.40;99.90;;;;;;5093130;28;20127;-72
2022/01/27 06:48:42;;;;;;;36.88;21.00;;;-2.50;99.90;;;;;;5075107;28;20488;-73
2022/01/27 06:51:14;;;;;;;38.50;20.70;;;-2.50;99.90;;;;;;5054645;28;20135;-72
2022/01/27 06:53:46;;;;;;;41.30;21.33;;;-2.40;99.90;;;;;;5054538;28;20056;-72
2022/01/27 06:56:18;;;;;;;36.13;20.27;;;-2.50;99.90;;;;;;5086268;28;20044;-75
2022/01/27 06:58:53;;;;;;;36.65;20.42;;;-2.40;99.90;;;;;;5066125;28;20499;-73
2022/01/27 07:01:20;;;;;;;36.70;21.70;;;-2.40;99.90;;;;;;5088099;28;20467;-73
2022/01/27 07:03:52;;;;;;;36.72;21.58;;;-2.40;99.90;;;;;;5090870;28;20428;-72
2022/01/27 07:06:19;;;;;;;40.28;21.85;;;-2.30;99.90;;;;;;5097520;28;20123;-73
2022/01/27 07:08:51;;;;;;;40.75;21.52;;;-2.30;99.90;;;;;;5090859;28;20133;-72
2022/01/27 07:11:23;;;;;;;39.13;21.35;;;-2.30;99.90;;;;;;5081606;28;20044;-72
2022/01/27 07:13:58;;;;;;;34.67;20.05;;;-2.30;99.90;;;;;;5079293;28;20396;-72
2022/01/27 07:16:34;;;;;;;40.55;20.90;;;-2.30;99.90;;;;;;5082526;28;20043;-72
2022/01/27 07:19:06;;;;;;;52.42;30.25;;;-2.20;99.90;;;;;;5065293;28;20506;-73
2022/01/27 07:21:40;;;;;;;55.03;31.42;;;-2.20;99.90;;;;;;5065952;28;20074;-73
2022/01/27 07:24:12;;;;;;;55.97;33.17;;;-2.20;99.90;;;;;;5082761;28;20052;-72
2022/01/27 07:26:44;;;;;;;51.95;29.10;;;-2.20;99.90;;;;;;5058929;28;20043;-72
2022/01/27 07:29:11;;;;;;;47.47;26.83;;;-2.20;99.90;;;;;;5083515;28;20386;-73
2022/01/27 07:31:55;;;;;;;44.50;26.92;;;-2.20;99.90;;;;;;5086045;28;20048;-72
2022/01/27 07:34:26;;;;;;;47.72;28.80;;;-2.20;99.90;;;;;;5085131;28;20123;-72
2022/01/27 07:36:59;;;;;;;51.72;29.45;;;-2.10;99.90;;;;;;5089213;28;20040;-72
2022/01/27 07:39:31;;;;;;;47.60;26.13;;;-2.10;99.90;;;;;;5083002;28;20064;-72
2022/01/27 07:42:05;;;;;;;53.97;28.13;;;-2.10;99.90;;;;;;5066875;28;20094;-72
2022/01/27 07:44:38;;;;;;;90.25;40.58;;;-2.10;99.90;;;;;;5063976;28;20048;-73
2022/01/27 07:47:06;;;;;;;79.75;37.70;;;-2.10;99.90;;;;;;5070334;28;20051;-72
2022/01/27 07:49:39;;;;;;;50.88;26.60;;;-2.00;99.90;;;;;;5084462;28;20522;-72
2022/01/27 07:52:13;;;;;;;44.90;24.85;;;-2.00;99.90;;;;;;5074624;28;20040;-73
2022/01/27 07:54:40;;;;;;;44.30;24.77;;;-2.00;99.90;;;;;;5081313;28;20117;-72
2022/01/27 07:57:12;;;;;;;53.83;33.28;;;-1.90;99.90;;;;;;5085897;28;20115;-72
2022/01/27 07:59:45;;;;;;;62.03;36.67;;;-2.00;99.90;;;;;;5081054;28;20031;-73
2022/01/27 08:02:12;;;;;;;50.50;31.02;;;-2.00;99.90;;;;;;5069621;28;20097;-72
2022/01/27 08:04:47;;;;;;;44.75;26.60;;;-1.90;99.90;;;;;;5073693;28;20525;-72
2022/01/27 08:07:21;;;;;;;41.30;23.27;;;-1.90;99.90;;;;;;5073822;28;20055;-72
2022/01/27 08:09:54;;;;;;;43.17;25.08;;;-1.80;99.90;;;;;;5073581;28;20649;-73
2022/01/27 08:12:22;;;;;;;47.97;25.67;;;-1.70;99.90;;;;;;5089854;28;20158;-73
2022/01/27 08:14:51;;;;;;;44.58;25.65;;;-1.70;99.90;;;;;;5054137;28;20585;-73
2022/01/27 08:17:22;;;;;;;40.35;24.40;;;-1.60;99.90;;;;;;5058426;28;20493;-73
2022/01/27 08:19:55;;;;;;;43.20;23.80;;;-1.60;99.90;;;;;;5072315;28;20155;-72
2022/01/27 08:22:25;;;;;;;44.03;25.17;;;-1.50;99.90;;;;;;5048584;28;20410;-73
2022/01/27 08:24:58;;;;;;;44.53;25.40;;;-1.50;99.90;;;;;;5073175;28;20135;-72
2022/01/27 08:27:30;;;;;;;33.90;19.75;;;-1.40;99.90;;;;;;5074166;28;20076;-72
2022/01/27 08:30:02;;;;;;;32.28;19.65;;;-1.30;99.90;;;;;;5073342;28;20060;-72
2022/01/27 08:35:21;;;;;;;32.63;20.98;;;-1.20;99.90;;;;;;5091191;28;20355;-73
2022/01/27 08:37:53;;;;;;;30.88;17.80;;;-1.10;99.90;;;;;;5068634;28;20036;-72
2022/01/27 08:40:29;;;;;;;27.45;15.90;;;-1.10;99.90;;;;;;5069914;28;20047;-73
2022/01/27 08:42:58;;;;;;;26.27;15.93;;;-1.00;99.90;;;;;;5086666;28;20047;-73
2022/01/27 08:45:30;;;;;;;24.35;14.38;;;-1.00;99.90;;;;;;5091457;28;20426;-73
2022/01/27 08:47:58;;;;;;;19.25;11.38;;;-0.80;99.90;;;;;;5091150;28;20473;-72
2022/01/27 08:50:33;;;;;;;18.38;10.20;;;-0.70;99.90;;;;;;5073036;28;20044;-72
2022/01/27 08:53:00;;;;;;;17.40;10.57;;;-0.50;99.90;;;;;;5072072;28;20130;-72
2022/01/27 08:55:32;;;;;;;18.75;10.30;;;-0.30;99.90;;;;;;5090967;28;20032;-72
2022/01/27 08:58:04;;;;;;;21.20;12.00;;;-0.20;99.90;;;;;;5072492;28;20040;-73
2022/01/27 09:00:32;;;;;;;20.15;11.40;;;-0.10;99.90;;;;;;5072926;28;20064;-72
2022/01/27 09:03:04;;;;;;;22.00;14.15;;;-0.10;99.90;;;;;;5072427;28;20044;-72
2022/01/27 09:05:36;;;;;;;21.65;13.70;;;0.00;99.90;;;;;;5073243;28;20044;-73
2022/01/27 09:08:08;;;;;;;26.70;14.85;;;0.10;99.90;;;;;;5089453;28;20105;-73
2022/01/27 09:10:41;;;;;;;23.88;14.70;;;0.20;99.90;;;;;;5090552;28;20044;-73
2022/01/27 09:13:12;;;;;;;22.63;13.60;;;0.20;99.90;;;;;;5089340;28;20071;-73
2022/01/27 09:15:47;;;;;;;22.70;13.48;;;0.20;99.90;;;;;;5081058;28;20380;-73
2022/01/27 09:18:21;;;;;;;21.05;13.60;;;0.30;99.90;;;;;;5036530;28;20041;-72
2022/01/27 09:20:51;;;;;;;21.17;12.43;;;0.30;99.90;;;;;;5062369;28;20047;-72
2022/01/27 09:23:19;;;;;;;19.52;10.77;;;0.40;99.90;;;;;;5090316;28;20119;-72
2022/01/27 09:25:49;;;;;;;20.38;11.77;;;0.50;99.90;;;;;;5090815;28;20089;-72
2022/01/27 09:28:18;;;;;;;17.75;10.60;;;0.60;99.90;;;;;;5090390;28;20410;-72
2022/01/27 09:30:51;;;;;;;19.33;11.07;;;0.70;99.90;;;;;;5090790;28;20054;-72
2022/01/27 09:33:25;;;;;;;18.70;10.52;;;0.70;99.90;;;;;;5071943;28;20055;-72
2022/01/27 09:35:59;;;;;;;22.67;11.27;;;0.90;99.90;;;;;;5090616;28;20402;-72
2022/01/27 09:38:31;;;;;;;17.55;10.30;;;0.90;99.90;;;;;;5088964;28;20032;-73
2022/01/27 09:41:01;;;;;;;20.73;11.05;;;1.00;99.90;;;;;;5070219;28;20460;-73
2022/01/27 09:43:35;;;;;;;17.55;11.15;;;1.10;99.90;;;;;;5091882;28;20036;-72
2022/01/27 09:46:13;;;;;;;17.50;10.32;;;1.10;99.90;;;;;;5075251;28;20135;-72
2022/01/27 09:48:51;;;;;;;20.92;11.50;;;1.20;99.90;;;;;;5076078;28;20047;-72
2022/01/27 09:51:38;;;;;;;18.05;10.13;;;1.20;99.90;;;;;;5074079;28;20662;-72
2022/01/27 09:54:05;;;;;;;18.40;10.45;;;1.30;99.90;;;;;;5073901;28;20048;-72
2022/01/27 09:56:42;;;;;;;17.60;10.23;;;1.30;99.90;;;;;;5079927;28;20129;-73
2022/01/27 09:59:10;;;;;;;16.05;9.52;;;1.30;99.90;;;;;;5075435;28;20072;-73
2022/01/27 10:01:37;;;;;;;18.33;10.52;;;1.40;99.90;;;;;;5057275;28;20051;-73
2022/01/27 10:04:09;;;;;;;18.52;10.43;;;1.50;99.90;;;;;;5076451;28;20395;-73
2022/01/27 10:06:45;;;;;;;18.52;10.38;;;1.60;99.90;;;;;;5093687;28;20036;-72
2022/01/27 10:09:23;;;;;;;17.25;9.88;;;1.70;99.90;;;;;;5076794;28;20106;-72
2022/01/27 10:11:55;;;;;;;18.23;10.32;;;1.70;99.90;;;;;;5093203;28;20040;-72
2022/01/27 10:14:37;;;;;;;19.88;10.50;;;1.90;99.90;;;;;;5084445;28;20052;-72
2022/01/27 10:17:11;;;;;;;18.63;10.50;;;2.00;99.90;;;;;;5075810;28;20139;-73
2022/01/27 10:19:53;;;;;;;18.45;10.23;;;2.10;99.90;;;;;;5075730;28;20124;-72
2022/01/27 10:22:20;;;;;;;21.50;10.30;;;2.20;99.90;;;;;;5093900;28;20109;-73
2022/01/27 10:25:02;;;;;;;16.73;9.63;;;2.20;99.90;;;;;;5093574;28;20119;-73
2022/01/27 10:27:55;;;;;;;16.52;9.75;;;2.30;99.90;;;;;;5090972;28;20051;-73
2022/01/27 10:33:03;;;;;;;17.27;9.43;;;2.40;99.90;;;;;;5077030;28;20046;-73
2022/01/27 10:35:37;;;;;;;16.92;9.40;;;2.50;99.90;;;;;;5076487;28;20040;-72
2022/01/27 10:38:12;;;;;;;16.10;9.27;;;2.60;99.90;;;;;;5076129;28;20057;-73
2022/01/27 10:40:47;;;;;;;14.50;7.88;;;2.70;99.90;;;;;;5090439;28;20040;-72
2022/01/27 10:43:22;;;;;;;16.58;10.38;;;2.70;99.90;;;;;;5090851;28;20058;-72
2022/01/27 10:49:09;;;;;;;17.48;9.80;;;2.80;99.90;;;;;;5092949;28;20048;-72
2022/01/27 10:51:46;;;;;;;18.15;10.20;;;2.90;99.90;;;;;;5093093;28;20054;-72
2022/01/27 10:57:10;;;;;;;19.60;9.75;;;2.90;99.90;;;;;;5080456;28;20072;-72
2022/01/27 10:59:39;;;;;;;17.90;9.30;;;3.00;99.90;;;;;;5092831;28;20119;-73
2022/01/27 11:02:13;;;;;;;20.80;10.93;;;3.00;99.90;;;;;;5074942;28;20648;-72
2022/01/27 11:04:44;;;;;;;;;;;3.00;99.90;;;;;;5075282;28;20054;-73
2022/01/27 11:07:13;;;;;;;21.38;11.70;;;3.00;99.90;;;;;;5091859;28;20015;-72
2022/01/27 11:09:45;;;;;;;16.55;9.32;;;3.10;99.90;;;;;;5093213;28;20054;-72
2022/01/27 11:12:18;;;;;;;18.73;10.25;;;3.10;99.90;;;;;;5091437;28;20139;-73
2022/01/27 11:14:51;;;;;;;19.15;10.05;;;3.10;99.90;;;;;;5074988;28;20036;-72
2022/01/27 11:17:29;;;;;;;16.90;9.57;;;3.20;99.90;;;;;;5074931;28;20042;-72
2022/01/27 11:20:19;;;;;;;17.77;9.63;;;3.30;99.90;;;;;;5084955;28;20046;-72
2022/01/27 11:28:03;;;;;;;19.08;11.07;;;3.40;99.90;;;;;;5092706;28;20541;-72
2022/01/27 11:30:43;;;;;;;15.27;9.63;;;3.40;99.90;;;;;;5092745;28;20071;-73
2022/01/27 11:33:14;;;;;;;17.08;9.52;;;3.50;99.90;;;;;;5091839;28;20044;-72
2022/01/27 11:35:42;;;;;;;15.65;8.80;;;3.60;99.90;;;;;;5092856;28;20495;-72
2022/01/27 11:38:23;;;;;;;17.90;8.90;;;3.60;99.90;;;;;;5092836;28;20503;-72
2022/01/27 11:40:50;;;;;;;17.23;9.23;;;3.60;99.90;;;;;;5092477;28;20369;-72
2022/01/27 11:43:33;;;;;;;19.30;8.77;;;3.60;99.90;;;;;;5089912;28;20049;-72
2022/01/27 11:46:18;;;;;;;19.13;8.90;;;3.70;99.90;;;;;;5062671;28;20036;-72
2022/01/27 11:48:45;;;;;;;15.43;8.48;;;3.70;99.90;;;;;;5090417;28;20554;-72
2022/01/27 11:51:17;;;;;;;16.55;9.98;;;3.80;99.90;;;;;;5091985;28;20043;-73
2022/01/27 11:53:49;;;;;;;19.25;10.02;;;3.80;99.90;;;;;;5089068;28;20036;-73
2022/01/27 11:56:28;;;;;;;18.25;9.75;;;3.80;99.90;;;;;;5073988;28;20483;-72
2022/01/27 11:59:09;;;;;;;15.85;8.45;;;3.70;99.90;;;;;;5090934;28;20394;-73
2022/01/27 12:01:41;;;;;;;18.23;8.25;;;3.70;99.90;;;;;;5090999;28;20704;-72
2022/01/27 12:04:16;;;;;;;19.02;9.00;;;3.70;99.90;;;;;;5091667;28;20402;-72
2022/01/27 12:06:47;;;;;;;14.27;9.60;;;3.70;99.90;;;;;;5073624;28;20051;-72
2022/01/27 12:09:19;;;;;;;18.00;10.45;;;3.60;99.90;;;;;;5091952;28;20047;-72
2022/01/27 12:11:55;;;;;;;21.60;11.07;;;3.60;99.90;;;;;;5074776;28;20036;-73
2022/01/27 12:14:33;;;;;;;23.40;12.35;;;3.50;99.90;;;;;;5073305;28;20421;-72
2022/01/27 12:17:12;;;;;;;16.23;10.13;;;3.40;99.90;;;;;;5091988;28;20039;-72
2022/01/27 12:19:56;;;;;;;16.05;9.77;;;3.30;99.90;;;;;;5074492;28;20046;-72
2022/01/27 12:22:47;;;;;;;25.17;10.55;;;3.30;99.90;;;;;;5073652;28;20509;-72
2022/01/27 12:25:20;;;;;;;22.42;12.02;;;3.20;99.90;;;;;;5057890;28;20044;-73
2022/01/27 12:27:58;;;;;;;22.95;13.25;;;3.10;99.90;;;;;;5073707;28;20041;-72
2022/01/27 12:30:29;;;;;;;22.67;12.48;;;3.10;99.90;;;;;;5091698;28;20406;-73
2022/01/27 12:32:58;;;;;;;27.27;14.15;;;3.00;99.90;;;;;;5066268;28;20033;-73
2022/01/27 12:35:31;;;;;;;;;;;3.10;99.90;;;;;;5071050;28;20059;-73
2022/01/27 12:38:03;;;;;;;28.95;13.98;;;3.00;99.90;;;;;;5069641;28;19927;-72
2022/01/27 12:40:35;;;;;;;25.77;13.02;;;2.90;99.90;;;;;;5070385;28;20072;-72
2022/01/27 12:43:14;;;;;;;26.00;14.75;;;2.90;99.90;;;;;;5069760;28;20040;-72
2022/01/27 12:45:47;;;;;;;24.63;12.52;;;2.90;99.90;;;;;;5068993;28;20423;-72
2022/01/27 12:48:20;;;;;;;28.50;13.65;;;2.90;99.90;;;;;;5088754;28;20048;-72
2022/01/27 12:51:03;;;;;;;26.80;13.93;;;2.90;99.90;;;;;;5091053;28;20043;-72
2022/01/27 12:53:35;;;;;;;25.42;12.75;;;2.80;99.90;;;;;;5089500;28;20033;-72
2022/01/27 12:56:08;;;;;;;24.27;12.60;;;2.70;99.90;;;;;;5073009;28;20058;-72
2022/01/27 12:58:40;;;;;;;25.02;13.88;;;2.70;99.90;;;;;;5056090;28;20085;-72
2022/01/27 13:01:12;;;;;;;25.25;12.25;;;2.70;99.90;;;;;;5089758;28;20032;-72
2022/01/27 13:04:00;;;;;;;20.08;11.95;;;2.70;99.90;;;;;;5071134;28;20408;-73
2022/01/27 13:06:32;;;;;;;21.92;12.40;;;2.70;99.90;;;;;;5089757;28;20039;-72
2022/01/27 13:09:11;;;;;;;25.42;12.15;;;2.70;99.90;;;;;;5071708;28;20044;-72
2022/01/27 13:11:43;;;;;;;20.90;10.23;;;2.70;99.90;;;;;;5090893;28;20043;-72
2022/01/27 13:14:15;;;;;;;22.58;11.07;;;2.70;99.90;;;;;;5090097;28;20314;-72
2022/01/27 13:17:04;;;;;;;22.13;11.30;;;2.70;99.90;;;;;;5072084;28;20039;-72
2022/01/27 13:19:38;;;;;;;16.17;9.45;;;2.70;99.90;;;;;;5074244;28;20055;-72
2022/01/27 13:22:16;;;;;;;18.55;10.27;;;2.70;99.90;;;;;;5094911;28;20072;-72
2022/01/27 13:24:48;;;;;;;17.57;10.50;;;2.70;99.90;;;;;;5093783;28;20044;-71
2022/01/27 13:27:15;;;;;;;14.57;7.72;;;2.70;99.90;;;;;;5074928;28;20542;-72
2022/01/27 13:29:45;;;;;;;16.17;8.70;;;2.80;99.90;;;;;;5091019;28;20406;-72
2022/01/27 13:32:17;;;;;;;15.82;8.85;;;2.90;99.90;;;;;;5091799;28;20040;-72
2022/01/27 13:34:48;;;;;;;19.73;9.43;;;2.90;99.90;;;;;;5059170;28;20044;-71
2022/01/27 13:37:31;;;;;;;17.35;8.77;;;3.00;99.90;;;;;;5092755;28;20040;-72
2022/01/27 13:42:58;;;;;;;14.45;7.13;;;3.10;99.90;;;;;;5046464;28;20278;-72
2022/01/27 13:45:25;;;;;;;15.32;7.05;;;3.20;99.90;;;;;;5091144;28;20118;-73
2022/01/27 13:48:16;;;;;;;12.50;7.88;;;3.30;99.90;;;;;;5073758;28;20048;-73
2022/01/27 13:51:00;;;;;;;11.55;6.75;;;3.30;99.90;;;;;;5069982;28;20044;-72
2022/01/27 13:53:32;;;;;;;12.85;7.40;;;3.30;99.90;;;;;;5076356;28;20131;-72
2022/01/27 13:56:04;;;;;;;14.07;7.82;;;3.30;99.90;;;;;;5076027;28;20409;-72
2022/01/27 13:58:36;;;;;;;15.07;6.95;;;3.40;99.90;;;;;;5076830;28;20036;-72
2022/01/27 14:01:13;;;;;;;15.85;7.90;;;3.40;99.90;;;;;;5075645;28;20442;-73
2022/01/27 14:03:46;;;;;;;15.95;9.02;;;3.50;99.90;;;;;;5075091;28;20050;-72